Time;durP1;ratioP1;P1;durP2;ratioP2;P2;SDS_P1;SDS_P2;PMS_P1;PMS_P2;Temp;Humidity;BMP_temperature;BMP_pressure;BME280_temperature;BME280_humidity;BME280_pressure;Samples;Min_cycle;Max_cycle;Signal;HPM_P1;HPM_P2
2023/03/31 00:00:13;;;;;;;6.80;3.50;;;8.00;99.90;;;;;;5092492;28;20208;-73
2023/03/31 00:02:41;;;;;;;6.17;3.10;;;8.00;99.90;;;;;;5092606;28;20223;-73
2023/03/31 00:05:08;;;;;;;5.07;3.20;;;8.00;99.90;;;;;;5092376;28;20598;-73
2023/03/31 00:07:36;;;;;;;8.90;3.00;;;8.00;99.90;;;;;;5092408;28;20196;-74
2023/03/31 00:10:04;;;;;;;5.27;2.73;;;8.10;99.90;;;;;;5092345;28;20266;-73
2023/03/31 00:12:32;;;;;;;7.10;3.33;;;8.00;99.90;;;;;;5092334;28;20239;-73
2023/03/31 00:14:58;;;;;;;8.90;3.30;;;8.10;99.90;;;;;;5092310;28;20192;-73
2023/03/31 00:17:25;;;;;;;5.70;2.90;;;8.00;99.90;;;;;;5092500;28;20608;-73
2023/03/31 00:19:52;;;;;;;7.47;3.10;;;7.90;99.90;;;;;;5092320;28;20254;-73
2023/03/31 00:22:21;;;;;;;6.60;3.87;;;7.90;99.90;;;;;;5092243;28;20200;-73
2023/03/31 00:24:47;;;;;;;8.13;3.53;;;7.90;99.90;;;;;;5092160;28;20716;-73
2023/03/31 00:27:14;;;;;;;6.27;3.17;;;7.90;99.90;;;;;;5091841;28;20199;-72
2023/03/31 00:29:42;;;;;;;6.80;3.07;;;7.90;99.90;;;;;;5092255;28;20220;-73
2023/03/31 00:32:09;;;;;;;5.17;3.20;;;7.90;99.90;;;;;;5092104;28;20320;-73
2023/03/31 00:34:36;;;;;;;7.97;3.33;;;8.00;99.90;;;;;;5091950;28;20772;-72
2023/03/31 00:37:02;;;;;;;9.87;3.60;;;8.00;99.90;;;;;;5092090;28;20295;-73
2023/03/31 00:39:32;;;;;;;6.37;3.53;;;8.00;99.90;;;;;;5093701;28;20196;-73
2023/03/31 00:42:01;;;;;;;6.40;3.40;;;7.90;99.90;;;;;;5095666;28;20221;-73
2023/03/31 00:44:33;;;;;;;8.17;3.33;;;7.90;99.90;;;;;;5095699;28;20209;-73
2023/03/31 00:47:05;;;;;;;4.10;3.17;;;7.80;99.90;;;;;;5095786;28;20588;-73
2023/03/31 00:49:36;;;;;;;4.10;2.77;;;7.70;99.90;;;;;;5095478;28;20230;-72
2023/03/31 00:52:07;;;;;;;6.90;3.30;;;7.70;99.90;;;;;;5095530;28;20207;-73
2023/03/31 00:54:35;;;;;;;6.90;3.87;;;7.70;99.90;;;;;;5095504;28;20218;-73
2023/03/31 00:57:05;;;;;;;5.87;3.80;;;7.80;99.90;;;;;;5095359;28;20644;-73
2023/03/31 00:59:36;;;;;;;5.77;3.30;;;7.90;99.90;;;;;;5095356;28;20555;-73
2023/03/31 01:02:05;;;;;;;9.53;4.60;;;7.90;99.90;;;;;;5095422;28;20204;-73
2023/03/31 01:04:35;;;;;;;6.37;3.30;;;7.90;99.90;;;;;;5095267;28;20192;-73
2023/03/31 01:07:11;;;;;;;6.17;3.13;;;7.80;99.90;;;;;;5095167;28;20231;-73
2023/03/31 01:09:40;;;;;;;10.00;3.53;;;7.70;99.90;;;;;;5095277;28;20227;-73
2023/03/31 01:12:09;;;;;;;8.67;3.13;;;7.70;99.90;;;;;;5095245;28;20204;-73
2023/03/31 01:14:36;;;;;;;5.97;2.93;;;7.70;99.90;;;;;;5095247;28;20629;-73
2023/03/31 01:17:08;;;;;;;8.33;3.07;;;7.80;99.90;;;;;;5095241;28;20224;-72
2023/03/31 01:19:50;;;;;;;7.60;3.20;;;7.90;99.90;;;;;;5095169;28;20204;-72
2023/03/31 01:22:58;;;;;;;6.63;2.70;;;8.00;99.90;;;;;;5095153;28;20241;-72
2023/03/31 01:25:56;;;;;;;7.97;3.00;;;8.10;99.90;;;;;;5094880;28;20202;-72
2023/03/31 01:28:33;;;;;;;6.50;3.03;;;8.10;99.90;;;;;;5094706;28;20675;-72
2023/03/31 01:31:37;;;;;;;9.53;3.20;;;8.10;99.90;;;;;;5095012;28;20196;-73
2023/03/31 01:34:33;;;;;;;7.40;3.17;;;8.10;99.90;;;;;;5038342;28;20643;-72
2023/03/31 01:37:41;;;;;;;8.93;3.50;;;8.20;99.90;;;;;;5074669;28;20193;-72
2023/03/31 01:40:53;;;;;;;8.60;3.43;;;8.10;99.90;;;;;;5074378;28;20197;-72
2023/03/31 01:43:24;;;;;;;6.27;3.00;;;8.10;99.90;;;;;;5073996;28;20201;-73
2023/03/31 01:45:57;;;;;;;5.13;3.00;;;8.10;99.90;;;;;;5073774;28;20287;-72
2023/03/31 01:48:34;;;;;;;5.87;3.20;;;8.10;99.90;;;;;;5073568;28;20672;-72
2023/03/31 01:51:06;;;;;;;5.10;3.30;;;8.00;99.90;;;;;;5073196;28;20227;-72
2023/03/31 01:53:40;;;;;;;8.20;4.03;;;8.00;99.90;;;;;;5074249;28;20193;-73
2023/03/31 01:56:14;;;;;;;6.53;3.40;;;8.00;99.90;;;;;;5074228;28;20232;-72
2023/03/31 01:58:44;;;;;;;6.97;3.47;;;7.90;99.90;;;;;;5074072;28;20598;-73
2023/03/31 02:01:18;;;;;;;6.50;3.40;;;7.90;99.90;;;;;;5073921;28;20625;-73
2023/03/31 02:03:48;;;;;;;7.27;4.00;;;7.90;99.90;;;;;;5074319;28;20208;-72
2023/03/31 02:06:20;;;;;;;8.70;3.77;;;8.00;99.90;;;;;;5073998;28;20270;-72
2023/03/31 02:08:51;;;;;;;8.17;4.10;;;7.90;99.90;;;;;;5073800;28;20231;-72
2023/03/31 02:11:19;;;;;;;6.43;3.37;;;7.90;99.90;;;;;;5073846;28;20204;-72
2023/03/31 02:13:48;;;;;;;5.73;3.17;;;7.90;99.90;;;;;;5073653;28;20605;-72
2023/03/31 02:16:20;;;;;;;6.80;3.63;;;7.80;99.90;;;;;;5073825;28;20193;-72
2023/03/31 02:18:49;;;;;;;5.03;3.20;;;7.90;99.90;;;;;;5073763;28;20205;-73
2023/03/31 02:21:16;;;;;;;5.60;3.03;;;7.90;99.90;;;;;;5073768;28;20228;-73
2023/03/31 02:23:45;;;;;;;9.70;4.60;;;7.90;99.90;;;;;;5073540;28;20224;-72
2023/03/31 02:26:15;;;;;;;9.43;5.37;;;7.90;99.90;;;;;;5073504;28;20228;-72
2023/03/31 02:28:44;;;;;;;10.53;4.50;;;7.90;99.90;;;;;;5073627;28;20205;-73
2023/03/31 02:31:23;;;;;;;11.87;4.73;;;8.00;99.90;;;;;;5073392;28;20247;-72
2023/03/31 02:33:50;;;;;;;6.40;4.03;;;8.00;99.90;;;;;;5081778;28;20660;-72
2023/03/31 02:36:17;;;;;;;8.13;3.50;;;8.00;99.90;;;;;;5093616;28;20234;-73
2023/03/31 02:38:49;;;;;;;7.63;3.60;;;8.00;99.90;;;;;;5093761;28;20204;-73
2023/03/31 02:41:16;;;;;;;5.47;3.40;;;8.10;99.90;;;;;;5093665;28;20257;-73
2023/03/31 02:43:44;;;;;;;10.90;3.60;;;8.10;99.90;;;;;;5093383;28;20623;-72
2023/03/31 02:46:11;;;;;;;7.50;3.67;;;8.10;99.90;;;;;;5093615;28;20627;-72
2023/03/31 02:48:41;;;;;;;6.00;3.47;;;8.10;99.90;;;;;;5093363;28;20673;-72
2023/03/31 02:51:28;;;;;;;8.87;3.50;;;8.10;99.90;;;;;;5093259;28;20353;-73
2023/03/31 02:54:24;;;;;;;6.90;2.90;;;8.10;99.90;;;;;;5093429;28;20227;-73
2023/03/31 02:57:20;;;;;;;6.53;3.50;;;8.10;99.90;;;;;;5093141;28;20618;-72
2023/03/31 03:00:05;;;;;;;8.27;3.13;;;8.30;99.90;;;;;;5093532;28;20231;-72
2023/03/31 03:02:43;;;;;;;6.80;3.37;;;8.30;99.90;;;;;;5092926;28;20245;-72
2023/03/31 03:05:22;;;;;;;7.07;3.03;;;8.40;99.90;;;;;;5093081;28;20230;-73
2023/03/31 03:07:58;;;;;;;7.37;3.53;;;8.40;99.90;;;;;;5092938;28;20224;-73
2023/03/31 03:10:30;;;;;;;7.10;3.30;;;8.50;99.90;;;;;;5092998;28;20718;-72
2023/03/31 03:13:06;;;;;;;5.90;3.50;;;8.50;99.90;;;;;;5093250;28;20231;-72
2023/03/31 03:15:39;;;;;;;5.47;3.00;;;8.50;99.90;;;;;;5093170;28;20200;-72
2023/03/31 03:18:06;;;;;;;5.97;2.90;;;8.60;99.90;;;;;;5093011;28;20710;-72
2023/03/31 03:20:34;;;;;;;6.17;3.80;;;8.50;99.90;;;;;;5092513;28;20204;-72
2023/03/31 03:23:01;;;;;;;3.90;2.80;;;8.60;99.90;;;;;;5092858;28;20207;-73
2023/03/31 03:25:29;;;;;;;7.73;2.97;;;8.60;99.90;;;;;;5092883;28;20200;-72
2023/03/31 03:27:55;;;;;;;10.40;3.87;;;8.50;99.90;;;;;;5092875;28;20199;-73
2023/03/31 03:30:22;;;;;;;8.03;3.17;;;8.50;99.90;;;;;;5092653;28;20718;-72
2023/03/31 03:32:50;;;;;;;11.80;3.33;;;8.60;99.90;;;;;;5092721;28;20224;-72
2023/03/31 03:35:17;;;;;;;7.77;3.30;;;8.70;99.90;;;;;;5092908;28;20261;-73
2023/03/31 03:37:44;;;;;;;5.73;3.40;;;8.80;99.90;;;;;;5092853;28;20281;-74
2023/03/31 03:40:11;;;;;;;9.60;3.00;;;8.90;99.90;;;;;;5092828;28;20196;-73
2023/03/31 03:42:38;;;;;;;7.20;2.97;;;9.00;99.90;;;;;;5092585;28;20253;-72
2023/03/31 03:45:05;;;;;;;7.13;2.87;;;9.00;99.90;;;;;;5092663;28;20284;-72
2023/03/31 03:47:32;;;;;;;8.10;2.60;;;9.00;99.90;;;;;;5092737;28;20236;-73
2023/03/31 03:50:00;;;;;;;5.73;2.83;;;9.00;99.90;;;;;;5092711;28;20228;-74
2023/03/31 03:52:26;;;;;;;7.40;2.83;;;9.00;99.90;;;;;;5092738;28;20231;-73
2023/03/31 03:54:53;;;;;;;4.97;2.70;;;9.00;99.90;;;;;;5092721;28;20197;-73
2023/03/31 03:57:20;;;;;;;10.13;3.10;;;9.00;99.90;;;;;;5092486;28;20698;-73
2023/03/31 03:59:46;;;;;;;6.13;3.10;;;8.90;99.90;;;;;;5092531;28;20298;-73
2023/03/31 04:02:13;;;;;;;9.20;4.53;;;8.90;99.90;;;;;;5092904;28;20239;-73
2023/03/31 04:04:39;;;;;;;4.47;3.20;;;8.90;99.90;;;;;;5092567;28;20236;-73
2023/03/31 04:07:07;;;;;;;5.40;2.77;;;8.80;99.90;;;;;;5092364;28;20648;-74
2023/03/31 04:09:34;;;;;;;6.50;3.07;;;8.80;99.90;;;;;;5092580;28;20224;-73
2023/03/31 04:12:01;;;;;;;8.43;3.13;;;8.80;99.90;;;;;;5092348;28;20288;-73
2023/03/31 04:14:28;;;;;;;8.63;3.70;;;8.80;99.90;;;;;;5093847;28;20675;-73
2023/03/31 04:16:55;;;;;;;4.37;2.77;;;8.70;99.90;;;;;;5096181;28;20713;-73
2023/03/31 04:19:24;;;;;;;7.33;3.27;;;8.70;99.90;;;;;;5096478;28;20253;-73
2023/03/31 04:21:57;;;;;;;6.83;3.10;;;8.70;99.90;;;;;;5096232;28;20196;-73
2023/03/31 04:24:29;;;;;;;6.53;3.47;;;8.60;99.90;;;;;;5096295;28;20224;-72
2023/03/31 04:26:56;;;;;;;7.27;3.07;;;8.50;99.90;;;;;;5096048;28;20196;-73
2023/03/31 04:29:25;;;;;;;6.33;2.87;;;8.50;99.90;;;;;;5096175;28;20242;-72
2023/03/31 04:31:52;;;;;;;6.43;3.43;;;8.40;99.90;;;;;;5095927;28;20227;-72
2023/03/31 04:34:21;;;;;;;8.40;3.03;;;8.30;99.90;;;;;;5095701;28;20228;-72
2023/03/31 04:36:48;;;;;;;6.33;3.10;;;8.30;99.90;;;;;;5095899;28;20205;-72
2023/03/31 04:39:15;;;;;;;9.63;3.80;;;8.30;99.90;;;;;;5095768;28;20223;-72
2023/03/31 04:41:44;;;;;;;7.37;3.50;;;8.30;99.90;;;;;;5095885;28;20208;-73
2023/03/31 04:44:11;;;;;;;7.23;3.10;;;8.30;99.90;;;;;;5095893;28;20621;-72
2023/03/31 04:46:38;;;;;;;7.70;3.20;;;8.30;99.90;;;;;;5095781;28;20231;-72
2023/03/31 04:49:04;;;;;;;8.37;3.63;;;8.20;99.90;;;;;;5095645;28;20228;-72
2023/03/31 04:51:31;;;;;;;7.20;3.10;;;8.20;99.90;;;;;;5095502;28;20234;-73
2023/03/31 04:53:57;;;;;;;8.63;3.90;;;8.20;99.90;;;;;;5095547;28;20241;-74
2023/03/31 04:56:24;;;;;;;5.60;3.30;;;8.20;99.90;;;;;;5095433;28;20676;-73
2023/03/31 04:58:52;;;;;;;11.07;3.67;;;8.20;99.90;;;;;;5095583;28;20200;-73
2023/03/31 05:01:19;;;;;;;10.60;3.70;;;8.20;99.90;;;;;;5095606;28;20224;-72
2023/03/31 05:03:46;;;;;;;6.90;3.63;;;8.20;99.90;;;;;;5095283;28;20204;-72
2023/03/31 05:06:13;;;;;;;8.30;4.07;;;8.20;99.90;;;;;;5095284;28;20198;-73
2023/03/31 05:08:39;;;;;;;10.87;5.03;;;8.20;99.90;;;;;;5095055;28;20205;-73
2023/03/31 05:11:06;;;;;;;13.40;4.40;;;8.30;99.90;;;;;;5095318;28;20294;-74
2023/03/31 05:13:33;;;;;;;9.03;4.20;;;8.30;99.90;;;;;;5095522;28;20200;-73
2023/03/31 05:16:06;;;;;;;7.43;3.63;;;8.40;99.90;;;;;;5095210;28;20196;-72
2023/03/31 05:18:32;;;;;;;7.03;3.53;;;8.40;99.90;;;;;;5095087;28;20231;-73
2023/03/31 05:21:09;;;;;;;8.93;3.70;;;8.50;99.90;;;;;;5095113;28;20635;-72
2023/03/31 05:23:35;;;;;;;6.97;4.40;;;8.50;99.90;;;;;;5094898;28;20589;-73
2023/03/31 05:26:02;;;;;;;8.60;3.40;;;8.40;99.90;;;;;;5094739;28;20258;-73
2023/03/31 05:28:29;;;;;;;12.07;4.40;;;8.50;99.90;;;;;;5094786;28;20201;-71
2023/03/31 05:30:55;;;;;;;7.33;4.27;;;8.50;99.90;;;;;;5094414;28;20219;-74
2023/03/31 05:33:24;;;;;;;11.43;4.90;;;8.50;99.90;;;;;;5094588;28;20264;-83
2023/03/31 05:35:51;;;;;;;7.87;5.83;;;8.50;99.90;;;;;;5095920;28;20196;-74
2023/03/31 05:38:18;;;;;;;7.83;4.40;;;8.60;99.90;;;;;;5096083;28;20265;-84
2023/03/31 05:40:44;;;;;;;7.83;4.00;;;8.60;99.90;;;;;;5096273;28;20192;-83
2023/03/31 05:43:11;;;;;;;9.03;3.60;;;8.50;99.90;;;;;;5095421;28;20216;-83
2023/03/31 05:45:37;;;;;;;11.83;4.20;;;8.50;99.90;;;;;;5095860;28;20603;-82
2023/03/31 05:48:05;;;;;;;8.60;5.27;;;8.50;99.90;;;;;;5095156;28;20242;-83
2023/03/31 05:50:33;;;;;;;11.70;4.00;;;8.60;99.90;;;;;;5094901;28;20252;-82
2023/03/31 05:52:59;;;;;;;6.23;4.27;;;8.60;99.90;;;;;;5095106;28;20258;-74
2023/03/31 05:55:26;;;;;;;10.83;4.60;;;8.60;99.90;;;;;;5094150;28;20236;-74
2023/03/31 05:57:53;;;;;;;10.57;3.97;;;8.60;99.90;;;;;;5094399;28;20232;-72
2023/03/31 06:00:20;;;;;;;10.70;4.30;;;8.60;99.90;;;;;;5093773;28;20250;-73
2023/03/31 06:02:47;;;;;;;9.87;4.30;;;8.60;99.90;;;;;;5090841;28;20199;-73
2023/03/31 06:05:14;;;;;;;10.20;4.57;;;8.60;99.90;;;;;;5093996;28;20227;-73
2023/03/31 06:07:42;;;;;;;9.13;5.03;;;8.60;99.90;;;;;;5094177;28;20564;-72
2023/03/31 06:10:09;;;;;;;9.23;5.20;;;8.50;99.90;;;;;;5093989;28;20601;-71
2023/03/31 06:12:36;;;;;;;11.67;4.90;;;8.50;99.90;;;;;;5094123;28;20239;-73
2023/03/31 06:15:03;;;;;;;9.83;5.60;;;8.50;99.90;;;;;;5094038;28;20227;-73
2023/03/31 06:17:29;;;;;;;8.73;6.07;;;8.50;99.90;;;;;;5093961;28;20704;-73
2023/03/31 06:19:56;;;;;;;10.73;5.70;;;8.50;99.90;;;;;;5093792;28;20702;-72
2023/03/31 06:22:22;;;;;;;13.40;5.40;;;8.50;99.90;;;;;;5093945;28;20239;-74
2023/03/31 06:24:50;;;;;;;11.13;5.47;;;8.40;99.90;;;;;;5093922;28;20203;-76
2023/03/31 06:27:17;;;;;;;16.20;5.97;;;8.30;99.90;;;;;;5093804;28;20238;-75
2023/03/31 06:29:43;;;;;;;18.43;6.27;;;8.30;99.90;;;;;;5093466;28;20656;-75
2023/03/31 06:32:10;;;;;;;15.07;7.40;;;8.10;99.90;;;;;;5093566;28;20227;-74
2023/03/31 06:34:37;;;;;;;21.63;7.70;;;8.00;99.90;;;;;;5093402;28;20274;-73
2023/03/31 06:37:03;;;;;;;12.30;7.30;;;7.90;99.90;;;;;;5093053;28;20232;-73
2023/03/31 06:39:30;;;;;;;15.90;7.93;;;7.90;99.90;;;;;;5093674;28;20200;-77
2023/03/31 06:41:58;;;;;;;17.77;8.60;;;7.90;99.90;;;;;;5093402;28;20238;-76
2023/03/31 06:44:24;;;;;;;14.13;9.63;;;7.90;99.90;;;;;;5093150;28;20204;-74
2023/03/31 06:46:51;;;;;;;15.80;8.93;;;7.90;99.90;;;;;;5093600;28;20235;-74
2023/03/31 06:49:18;;;;;;;16.87;10.90;;;7.90;99.90;;;;;;5093378;28;20227;-75
2023/03/31 06:51:44;;;;;;;14.60;10.30;;;7.80;99.90;;;;;;5092866;28;20301;-74
2023/03/31 06:54:11;;;;;;;21.00;13.07;;;7.90;99.90;;;;;;5093150;28;20822;-76
2023/03/31 06:56:37;;;;;;;19.23;11.20;;;7.90;99.90;;;;;;5092869;28;20227;-74
2023/03/31 06:59:05;;;;;;;16.33;11.13;;;7.90;99.90;;;;;;5092915;28;20235;-73
2023/03/31 07:01:36;;;;;;;19.23;14.10;;;8.00;99.90;;;;;;5093257;28;20212;-73
2023/03/31 07:04:02;;;;;;;22.33;12.87;;;8.10;99.90;;;;;;5093095;28;20200;-73
2023/03/31 07:06:29;;;;;;;23.43;15.77;;;8.10;99.90;;;;;;5092921;28;20227;-73
2023/03/31 07:08:56;;;;;;;18.47;12.70;;;8.20;99.90;;;;;;5093150;28;20230;-74
2023/03/31 07:11:23;;;;;;;18.23;11.93;;;8.20;99.90;;;;;;5092775;28;20222;-73
2023/03/31 07:13:49;;;;;;;20.80;11.87;;;8.20;99.90;;;;;;5092746;28;20200;-76
2023/03/31 07:16:17;;;;;;;18.00;11.50;;;8.30;99.90;;;;;;5093295;28;20235;-76
2023/03/31 07:18:44;;;;;;;15.87;11.13;;;8.30;99.90;;;;;;5093230;28;20200;-75
2023/03/31 07:21:10;;;;;;;15.70;11.07;;;8.30;99.90;;;;;;5093295;28;20246;-76
2023/03/31 07:23:37;;;;;;;17.57;11.37;;;8.40;99.90;;;;;;5093008;28;20246;-76
2023/03/31 07:26:05;;;;;;;19.60;12.07;;;8.40;99.90;;;;;;5093374;28;20200;-83
2023/03/31 07:28:32;;;;;;;18.57;12.60;;;8.40;99.90;;;;;;5093631;28;20563;-76
2023/03/31 07:30:58;;;;;;;22.67;12.43;;;8.50;99.90;;;;;;5092892;28;20768;-76
2023/03/31 07:33:26;;;;;;;19.83;12.33;;;8.50;99.90;;;;;;5093278;28;20243;-75
2023/03/31 07:35:53;;;;;;;20.93;12.53;;;8.50;99.90;;;;;;5092744;28;20251;-74
2023/03/31 07:38:20;;;;;;;19.37;11.70;;;8.50;99.90;;;;;;5092598;28;20200;-75
2023/03/31 07:40:46;;;;;;;20.30;12.73;;;8.40;99.90;;;;;;5092642;28;20231;-73
2023/03/31 07:43:13;;;;;;;18.90;11.70;;;8.40;99.90;;;;;;5081054;28;20326;-74
2023/03/31 07:45:40;;;;;;;22.57;15.03;;;8.30;99.90;;;;;;5090937;28;20235;-75
2023/03/31 07:48:07;;;;;;;18.43;12.87;;;8.30;99.90;;;;;;5093408;28;20234;-75
2023/03/31 07:50:35;;;;;;;19.60;12.63;;;8.30;99.90;;;;;;5096480;28;20910;-74
2023/03/31 07:53:02;;;;;;;23.87;13.87;;;8.30;99.90;;;;;;5096539;28;20196;-75
2023/03/31 07:55:28;;;;;;;20.00;12.60;;;8.30;99.90;;;;;;5096604;28;20205;-76
2023/03/31 07:57:55;;;;;;;25.87;14.83;;;8.30;99.90;;;;;;5096672;28;20686;-76
2023/03/31 08:00:22;;;;;;;20.43;13.37;;;8.30;99.90;;;;;;5096937;28;20248;-78
2023/03/31 08:02:49;;;;;;;21.23;14.03;;;8.30;99.90;;;;;;5097132;28;20292;-77
2023/03/31 08:05:17;;;;;;;25.30;12.47;;;8.30;99.90;;;;;;5110817;28;20651;-78
2023/03/31 08:07:47;;;;;;;18.80;10.97;;;8.30;99.90;;;;;;5118948;28;20195;-78
2023/03/31 08:10:16;;;;;;;17.83;11.57;;;8.40;99.90;;;;;;5117877;28;20238;-77
2023/03/31 08:12:43;;;;;;;15.43;11.37;;;8.40;99.90;;;;;;5117653;28;20266;-77
2023/03/31 08:15:10;;;;;;;23.37;12.33;;;8.40;99.90;;;;;;5116956;28;20192;-77
2023/03/31 08:17:37;;;;;;;25.67;12.93;;;8.40;99.90;;;;;;5102635;28;20228;-75
2023/03/31 08:20:07;;;;;;;17.40;12.97;;;8.40;99.90;;;;;;5107860;28;20212;-74
2023/03/31 08:22:33;;;;;;;22.53;13.67;;;8.50;99.90;;;;;;5113656;28;20211;-77
2023/03/31 08:25:01;;;;;;;23.27;14.07;;;8.70;99.90;;;;;;5097298;28;20220;-76
2023/03/31 08:27:28;;;;;;;17.03;12.70;;;8.70;99.90;;;;;;5097130;28;20239;-76
2023/03/31 08:29:54;;;;;;;16.93;11.23;;;8.80;99.90;;;;;;5096363;28;20655;-76
2023/03/31 08:32:22;;;;;;;14.43;11.03;;;8.80;99.90;;;;;;5096343;28;20248;-75
2023/03/31 08:34:49;;;;;;;20.07;11.97;;;8.80;99.90;;;;;;5096465;28;20251;-77
2023/03/31 08:37:16;;;;;;;22.67;12.47;;;9.00;99.90;;;;;;5096324;28;20274;-75
2023/03/31 08:39:42;;;;;;;14.50;12.00;;;9.10;99.90;;;;;;5096138;28;20219;-81
2023/03/31 08:42:15;;;;;;;16.67;12.10;;;9.20;99.90;;;;;;5078993;28;20215;-72
2023/03/31 08:44:46;;;;;;;12.60;10.10;;;9.60;99.90;;;;;;5096753;28;20226;-81
2023/03/31 08:47:18;;;;;;;11.47;8.63;;;9.50;99.90;;;;;;5096514;28;20267;-81
2023/03/31 08:49:49;;;;;;;12.27;9.17;;;9.40;99.90;;;;;;5096586;28;20196;-80
2023/03/31 08:52:22;;;;;;;13.20;8.33;;;9.40;99.90;;;;;;5096098;28;20228;-80
2023/03/31 08:54:51;;;;;;;10.17;7.87;;;9.50;99.90;;;;;;5095827;28;20235;-81
2023/03/31 08:57:23;;;;;;;8.30;6.37;;;9.80;99.90;;;;;;5096576;28;20224;-81
2023/03/31 08:59:51;;;;;;;9.67;6.33;;;9.80;99.90;;;;;;5095896;28;20245;-82
2023/03/31 09:02:26;;;;;;;36.37;26.70;;;10.00;99.90;;;;;;5096262;28;20647;-82
2023/03/31 09:05:18;;;;;;;7.00;5.20;;;10.20;99.90;;;;;;5096729;28;20670;-82
2023/03/31 09:07:58;;;;;;;7.47;4.67;;;10.40;99.90;;;;;;5097066;28;20242;-82
2023/03/31 09:10:35;;;;;;;6.17;4.00;;;10.50;99.90;;;;;;5096657;28;20230;-83
2023/03/31 09:13:14;;;;;;;5.43;3.73;;;10.60;99.90;;;;;;5096341;28;20262;-84
2023/03/31 09:15:45;;;;;;;5.00;3.67;;;10.70;99.90;;;;;;5107733;28;20214;-83
2023/03/31 09:18:18;;;;;;;3.50;3.17;;;10.80;99.90;;;;;;5098429;28;20197;-82
2023/03/31 09:20:48;;;;;;;6.27;3.60;;;10.80;99.90;;;;;;5077953;28;20207;-82
2023/03/31 09:23:26;;;;;;;6.30;3.20;;;11.00;99.90;;;;;;5096616;28;20540;-83
2023/03/31 09:25:53;;;;;;;4.83;3.53;;;11.10;99.90;;;;;;5078381;28;20207;-83
2023/03/31 09:28:26;;;;;;;5.67;3.33;;;11.20;99.90;;;;;;5096162;28;20251;-82
2023/03/31 09:30:54;;;;;;;5.90;3.47;;;11.40;99.90;;;;;;5095696;28;20560;-83
2023/03/31 09:33:30;;;;;;;4.60;2.57;;;11.80;99.90;;;;;;5073847;28;20233;-83
2023/03/31 09:35:57;;;;;;;6.70;2.80;;;11.70;99.90;;;;;;5076018;28;20287;-84
2023/03/31 09:38:28;;;;;;;5.23;3.23;;;12.00;99.90;;;;;;5099498;28;20193;-84
2023/03/31 09:40:55;;;;;;;5.70;2.70;;;12.10;99.90;;;;;;5099276;28;20197;-85
2023/03/31 09:43:25;;;;;;;3.63;2.60;;;12.20;99.90;;;;;;5091273;28;20208;-85
2023/03/31 09:45:53;;;;;;;6.17;2.80;;;12.10;99.90;;;;;;5078561;28;20197;-84
2023/03/31 09:48:24;;;;;;;6.10;2.80;;;12.30;99.90;;;;;;5077767;28;20234;-84
2023/03/31 09:50:55;;;;;;;4.70;2.77;;;12.50;99.90;;;;;;5076140;28;20236;-82
2023/03/31 09:53:29;;;;;;;4.47;2.47;;;12.70;99.90;;;;;;5075610;28;20259;-82
2023/03/31 09:56:01;;;;;;;5.37;2.33;;;12.70;99.90;;;;;;5075380;28;20227;-82
2023/03/31 09:58:29;;;;;;;3.97;2.50;;;12.90;99.90;;;;;;5075120;28;20585;-83
2023/03/31 10:00:59;;;;;;;5.43;2.63;;;12.60;99.90;;;;;;5075374;28;20251;-83
2023/03/31 10:03:28;;;;;;;5.63;2.40;;;12.70;99.90;;;;;;5075084;28;20262;-84
2023/03/31 10:05:57;;;;;;;3.80;2.37;;;12.70;99.90;;;;;;5075369;28;20201;-82
2023/03/31 10:08:28;;;;;;;5.87;2.40;;;12.70;99.90;;;;;;5075056;28;20204;-81
2023/03/31 10:10:56;;;;;;;6.77;2.70;;;13.10;99.90;;;;;;5075380;28;20234;-82
2023/03/31 10:13:25;;;;;;;6.77;2.30;;;13.00;99.90;;;;;;5074603;28;20913;-83
2023/03/31 10:15:54;;;;;;;6.20;2.60;;;13.00;99.90;;;;;;5073520;28;20224;-74
2023/03/31 10:18:32;;;;;;;6.80;2.53;;;13.30;99.90;;;;;;5073543;28;20197;-74
2023/03/31 10:21:00;;;;;;;4.80;2.67;;;13.20;99.90;;;;;;5072474;28;20287;-74
2023/03/31 10:23:29;;;;;;;9.23;2.27;;;13.90;99.90;;;;;;5073453;28;20197;-74
2023/03/31 10:25:57;;;;;;;6.50;2.60;;;13.80;99.90;;;;;;5073342;28;20266;-75
2023/03/31 10:28:24;;;;;;;5.80;2.67;;;13.70;99.90;;;;;;5073336;28;20276;-75
2023/03/31 10:30:55;;;;;;;5.83;2.80;;;13.60;99.90;;;;;;5073165;28;20229;-74
2023/03/31 10:33:25;;;;;;;4.33;2.50;;;13.40;99.90;;;;;;5077177;28;20274;-75
2023/03/31 10:35:56;;;;;;;7.30;2.77;;;13.70;99.90;;;;;;5093520;28;20200;-73
2023/03/31 10:38:27;;;;;;;4.43;2.30;;;13.30;99.90;;;;;;5093527;28;20238;-74
2023/03/31 10:40:56;;;;;;;6.23;2.30;;;13.00;99.90;;;;;;5092317;28;20201;-73
2023/03/31 10:43:27;;;;;;;6.67;2.87;;;13.00;99.90;;;;;;5093103;28;20196;-74
2023/03/31 10:45:56;;;;;;;4.83;2.37;;;11.50;99.90;;;;;;5092938;28;20698;-73
2023/03/31 10:48:26;;;;;;;7.93;2.83;;;11.50;99.90;;;;;;5093109;28;20196;-75
2023/03/31 10:50:53;;;;;;;7.03;3.17;;;12.20;99.90;;;;;;5093462;28;20228;-74
2023/03/31 10:53:20;;;;;;;6.30;2.20;;;12.50;99.90;;;;;;5093058;28;20345;-74
2023/03/31 10:55:58;;;;;;;5.03;2.17;;;12.40;99.90;;;;;;5093032;28;20677;-74
2023/03/31 10:58:38;;;;;;;4.17;2.07;;;12.50;99.90;;;;;;5092961;28;20231;-74
2023/03/31 11:01:20;;;;;;;4.67;2.33;;;12.80;99.90;;;;;;5092773;28;20224;-77
2023/03/31 11:04:15;;;;;;;6.47;2.20;;;13.30;99.90;;;;;;5093048;28;20600;-77
2023/03/31 11:06:52;;;;;;;4.20;2.23;;;13.70;99.90;;;;;;5085991;28;20196;-77
2023/03/31 11:09:34;;;;;;;3.73;2.10;;;13.70;99.90;;;;;;5092889;28;20265;-77
2023/03/31 11:12:11;;;;;;;4.97;2.00;;;14.80;99.90;;;;;;5092785;28;20278;-76
2023/03/31 11:14:48;;;;;;;5.63;2.30;;;15.20;99.90;;;;;;5092690;28;20203;-75
2023/03/31 11:17:29;;;;;;;3.10;1.70;;;15.10;99.90;;;;;;5092604;28;20196;-74
2023/03/31 11:20:05;;;;;;;7.05;1.90;;;15.10;99.90;;;;;;5092627;28;20205;-73
2023/03/31 11:22:40;;;;;;;5.85;1.80;;;15.10;99.90;;;;;;5092315;28;20208;-74
2023/03/31 11:25:21;;;;;;;3.20;1.77;;;14.60;99.90;;;;;;5092595;28;20227;-74
2023/03/31 11:28:00;;;;;;;2.87;1.37;;;14.10;99.90;;;;;;5092741;28;20197;-73
2023/03/31 11:30:32;;;;;;;5.93;1.57;;;13.00;99.90;;;;;;5097839;28;20195;-76
2023/03/31 11:33:16;;;;;;;4.40;1.67;;;10.00;99.90;;;;;;5094227;28;20228;-75
2023/03/31 11:35:53;;;;;;;4.70;1.60;;;9.90;99.90;;;;;;5094523;28;20227;-75
2023/03/31 11:38:38;;;;;;;3.83;1.70;;;10.40;99.90;;;;;;5092466;28;20226;-78
2023/03/31 11:41:10;;;;;;;5.67;1.80;;;10.90;99.90;;;;;;5092940;28;20253;-78
2023/03/31 11:43:43;;;;;;;3.43;1.77;;;11.20;99.90;;;;;;5092661;28;20623;-78
2023/03/31 11:46:15;;;;;;;4.03;1.37;;;11.60;99.90;;;;;;5092587;28;20307;-76
2023/03/31 11:48:47;;;;;;;3.10;1.40;;;12.00;99.90;;;;;;5092320;28;20197;-74
2023/03/31 11:51:18;;;;;;;7.30;1.90;;;12.70;99.90;;;;;;5092595;28;20615;-74
2023/03/31 11:53:46;;;;;;;3.60;1.73;;;13.00;99.90;;;;;;5092432;28;20327;-74
2023/03/31 11:56:14;;;;;;;3.40;1.30;;;13.00;99.90;;;;;;5092307;28;20682;-74
2023/03/31 11:58:46;;;;;;;4.07;1.80;;;13.10;99.90;;;;;;5092332;28;20231;-74
2023/03/31 12:01:21;;;;;;;4.47;1.47;;;13.50;99.90;;;;;;5092466;28;20200;-73
2023/03/31 12:03:57;;;;;;;7.67;2.13;;;13.80;99.90;;;;;;5092433;28;20207;-72
2023/03/31 12:06:29;;;;;;;4.40;1.70;;;13.80;99.90;;;;;;5092226;28;20257;-74
2023/03/31 12:09:06;;;;;;;5.60;1.90;;;14.30;99.90;;;;;;5092265;28;20239;-73
2023/03/31 12:11:38;;;;;;;3.83;1.20;;;14.60;99.90;;;;;;5092108;28;20195;-73
2023/03/31 12:14:23;;;;;;;3.87;2.10;;;14.10;99.90;;;;;;5092108;28;20711;-73
2023/03/31 12:16:53;;;;;;;4.47;1.70;;;14.40;99.90;;;;;;5092210;28;20614;-73
2023/03/31 12:19:27;;;;;;;6.67;1.80;;;14.40;99.90;;;;;;5092089;28;20228;-74
2023/03/31 12:21:58;;;;;;;3.17;1.60;;;14.90;99.90;;;;;;5092005;28;20303;-74
2023/03/31 12:24:25;;;;;;;5.82;1.77;;;15.40;99.90;;;;;;5092258;28;20238;-73
2023/03/31 12:27:02;;;;;;;2.78;1.65;;;15.70;99.90;;;;;;5092101;28;20224;-73
2023/03/31 12:29:33;;;;;;;6.10;1.75;;;16.80;99.90;;;;;;5092039;28;20215;-73
2023/03/31 12:32:04;;;;;;;4.18;1.88;;;16.40;99.90;;;;;;5092001;28;20246;-73
2023/03/31 12:34:44;;;;;;;3.30;1.63;;;15.20;99.90;;;;;;5092081;28;20250;-73
2023/03/31 12:37:29;;;;;;;5.17;1.90;;;14.00;99.90;;;;;;5095865;28;20320;-73
2023/03/31 12:40:09;;;;;;;5.10;1.53;;;13.70;99.90;;;;;;5095673;28;20227;-73
2023/03/31 12:43:06;;;;;;;3.47;1.43;;;10.10;99.90;;;;;;5095543;28;20235;-73
2023/03/31 12:45:38;;;;;;;4.73;1.60;;;8.50;99.90;;;;;;5095876;28;20259;-75
2023/03/31 12:48:48;;;;;;;5.33;1.53;;;8.10;99.90;;;;;;5095475;28;20257;-77
2023/03/31 12:51:34;;;;;;;4.57;1.80;;;8.00;99.90;;;;;;5076074;28;20204;-78
2023/03/31 12:54:19;;;;;;;7.77;1.87;;;8.30;99.90;;;;;;5095380;28;20236;-78
2023/03/31 12:57:04;;;;;;;6.30;1.83;;;8.70;99.90;;;;;;5095854;28;20200;-79
2023/03/31 12:59:33;;;;;;;5.70;1.60;;;9.40;99.90;;;;;;5096331;28;20243;-81
2023/03/31 13:02:27;;;;;;;5.90;1.73;;;10.20;99.90;;;;;;5095997;28;20239;-81
2023/03/31 13:04:54;;;;;;;3.53;1.47;;;10.50;99.90;;;;;;5048066;28;20721;-81
2023/03/31 13:07:41;;;;;;;3.67;1.43;;;11.10;99.90;;;;;;5095619;28;20274;-78
2023/03/31 13:10:29;;;;;;;4.53;1.80;;;11.50;99.90;;;;;;5095295;28;20204;-77